sensor_id;sensor_type;location;lat;lon;timestamp;pressure;altitude;pressure_sealevel;temperature;humidity
33697;BME280;20031;43.416;23.232;2023-02-04T00:00:47;99741.22;;;5.41;76.89
33697;BME280;20031;43.416;23.232;2023-02-04T00:03:13;99737.84;;;5.40;77.40
33697;BME280;20031;43.416;23.232;2023-02-04T00:05:39;99734.44;;;5.40;76.98
33697;BME280;20031;43.416;23.232;2023-02-04T00:08:05;99732.81;;;5.39;77.56
33697;BME280;20031;43.416;23.232;2023-02-04T00:10:30;99730.22;;;5.39;77.66
33697;BME280;20031;43.416;23.232;2023-02-04T00:12:56;99717.31;;;5.39;77.18
33697;BME280;20031;43.416;23.232;2023-02-04T00:15:21;99710.50;;;5.38;77.62
33697;BME280;20031;43.416;23.232;2023-02-04T00:17:47;99725.06;;;5.39;77.35
33697;BME280;20031;43.416;23.232;2023-02-04T00:20:13;99710.50;;;5.38;77.42
33697;BME280;20031;43.416;23.232;2023-02-04T00:22:38;99703.72;;;5.37;77.76
33697;BME280;20031;43.416;23.232;2023-02-04T00:25:04;99703.72;;;5.37;77.83
33697;BME280;20031;43.416;23.232;2023-02-04T00:27:29;99706.28;;;5.37;77.94
33697;BME280;20031;43.416;23.232;2023-02-04T00:29:55;99705.75;;;5.33;77.74
33697;BME280;20031;43.416;23.232;2023-02-04T00:32:22;99703.31;;;5.32;78.18
33697;BME280;20031;43.416;23.232;2023-02-04T00:34:47;99703.31;;;5.32;78.43
33697;BME280;20031;43.416;23.232;2023-02-04T00:37:13;99702.50;;;5.31;78.66
33697;BME280;20031;43.416;23.232;2023-02-04T00:39:38;99697.34;;;5.31;78.64
33697;BME280;20031;43.416;23.232;2023-02-04T00:42:04;99696.50;;;5.31;78.77
33697;BME280;20031;43.416;23.232;2023-02-04T00:44:30;99700.06;;;5.30;78.48
33697;BME280;20031;43.416;23.232;2023-02-04T00:46:55;99698.41;;;5.29;78.85
33697;BME280;20031;43.416;23.232;2023-02-04T00:49:21;99701.94;;;5.28;79.04
33697;BME280;20031;43.416;23.232;2023-02-04T00:51:47;99694.34;;;5.26;78.96
33697;BME280;20031;43.416;23.232;2023-02-04T00:54:13;99683.19;;;5.26;79.38
33697;BME280;20031;43.416;23.232;2023-02-04T00:56:40;99695.13;;;5.27;79.21
33697;BME280;20031;43.416;23.232;2023-02-04T00:59:06;99690.81;;;5.27;79.58
33697;BME280;20031;43.416;23.232;2023-02-04T01:01:32;99689.97;;;5.27;79.74
33697;BME280;20031;43.416;23.232;2023-02-04T01:03:58;99675.47;;;5.26;79.64
33697;BME280;20031;43.416;23.232;2023-02-04T01:06:23;99684.81;;;5.27;79.94
33697;BME280;20031;43.416;23.232;2023-02-04T01:08:49;99676.41;;;5.25;80.10
33697;BME280;20031;43.416;23.232;2023-02-04T01:11:14;99674.63;;;5.25;80.03
33697;BME280;20031;43.416;23.232;2023-02-04T01:13:40;99672.03;;;5.25;79.88
33697;BME280;20031;43.416;23.232;2023-02-04T01:16:06;99667.00;;;5.24;80.38
33697;BME280;20031;43.416;23.232;2023-02-04T01:18:31;99650.59;;;5.25;80.20
33697;BME280;20031;43.416;23.232;2023-02-04T01:20:56;99656.56;;;5.25;80.59
33697;BME280;20031;43.416;23.232;2023-02-04T01:23:22;99656.69;;;5.24;80.45
33697;BME280;20031;43.416;23.232;2023-02-04T01:25:47;99654.94;;;5.24;80.68
33697;BME280;20031;43.416;23.232;2023-02-04T01:28:13;99654.13;;;5.24;80.87
33697;BME280;20031;43.416;23.232;2023-02-04T01:30:38;99647.34;;;5.23;80.67
33697;BME280;20031;43.416;23.232;2023-02-04T01:33:04;99640.41;;;5.23;80.80
33697;BME280;20031;43.416;23.232;2023-02-04T01:35:29;99637.03;;;5.23;80.78
33697;BME280;20031;43.416;23.232;2023-02-04T01:37:54;99635.38;;;5.22;80.87
33697;BME280;20031;43.416;23.232;2023-02-04T01:40:20;99624.25;;;5.21;81.01
33697;BME280;20031;43.416;23.232;2023-02-04T01:42:45;99623.41;;;5.21;80.89
33697;BME280;20031;43.416;23.232;2023-02-04T01:45:11;99624.38;;;5.20;81.27
33697;BME280;20031;43.416;23.232;2023-02-04T01:47:37;99609.84;;;5.19;81.42
33697;BME280;20031;43.416;23.232;2023-02-04T01:50:04;99615.00;;;5.19;81.05
33697;BME280;20031;43.416;23.232;2023-02-04T01:52:33;99593.00;;;5.15;80.87
33697;BME280;20031;43.416;23.232;2023-02-04T01:54:59;99593.00;;;5.15;80.85
33697;BME280;20031;43.416;23.232;2023-02-04T01:57:25;99584.31;;;5.16;80.59
33697;BME280;20031;43.416;23.232;2023-02-04T01:59:51;99574.00;;;5.16;80.90
33697;BME280;20031;43.416;23.232;2023-02-04T02:05:03;99584.03;;;5.19;80.46
33697;BME280;20031;43.416;23.232;2023-02-04T02:07:29;99597.59;;;5.21;79.38
33697;BME280;20031;43.416;23.232;2023-02-04T02:09:54;99596.00;;;5.20;79.41
33697;BME280;20031;43.416;23.232;2023-02-04T02:12:20;99599.53;;;5.19;79.18
33697;BME280;20031;43.416;23.232;2023-02-04T02:14:45;99592.72;;;5.18;78.96
33697;BME280;20031;43.416;23.232;2023-02-04T02:17:11;99592.72;;;5.18;78.85
33697;BME280;20031;43.416;23.232;2023-02-04T02:19:37;99589.47;;;5.16;78.55
33697;BME280;20031;43.416;23.232;2023-02-04T02:22:17;99584.31;;;5.16;78.49
33697;BME280;20031;43.416;23.232;2023-02-04T02:24:45;99584.59;;;5.13;78.48
33697;BME280;20031;43.416;23.232;2023-02-04T02:27:11;99588.09;;;5.12;78.25
33697;BME280;20031;43.416;23.232;2023-02-04T02:29:39;99575.47;;;5.09;78.54
33697;BME280;20031;43.416;23.232;2023-02-04T02:32:06;99580.63;;;5.09;79.07
33697;BME280;20031;43.416;23.232;2023-02-04T02:34:32;99569.66;;;5.07;78.63
33697;BME280;20031;43.416;23.232;2023-02-04T02:36:59;99566.38;;;5.05;78.93
33697;BME280;20031;43.416;23.232;2023-02-04T02:39:25;99571.53;;;5.05;78.71
33697;BME280;20031;43.416;23.232;2023-02-04T02:41:51;99575.19;;;5.03;78.75
33697;BME280;20031;43.416;23.232;2023-02-04T02:44:17;99570.88;;;5.03;79.03
33697;BME280;20031;43.416;23.232;2023-02-04T02:46:43;99587.00;;;5.05;79.02
33697;BME280;20031;43.416;23.232;2023-02-04T02:49:15;99579.97;;;5.07;79.20
33697;BME280;20031;43.416;23.232;2023-02-04T02:51:41;99576.41;;;5.08;78.79
33697;BME280;20031;43.416;23.232;2023-02-04T02:54:23;99571.97;;;5.10;78.93
33697;BME280;20031;43.416;23.232;2023-02-04T02:56:50;99578.88;;;5.09;78.68
33697;BME280;20031;43.416;23.232;2023-02-04T02:59:16;99574.53;;;5.10;78.97
33697;BME280;20031;43.416;23.232;2023-02-04T03:01:43;99571.25;;;5.08;78.77
33697;BME280;20031;43.416;23.232;2023-02-04T03:04:10;99569.38;;;5.10;78.76
33697;BME280;20031;43.416;23.232;2023-02-04T03:06:36;99559.84;;;5.10;78.77
33697;BME280;20031;43.416;23.232;2023-02-04T03:09:02;99554.81;;;5.28;79.88
33697;BME280;20031;43.416;23.232;2023-02-04T03:11:27;99550.22;;;5.86;77.11
33697;BME280;20031;43.416;23.232;2023-02-04T03:13:58;99539.31;;;6.46;72.84
33697;BME280;20031;43.416;23.232;2023-02-04T03:16:25;99542.25;;;6.77;70.67
33697;BME280;20031;43.416;23.232;2023-02-04T03:18:51;99534.56;;;7.03;67.96
33697;BME280;20031;43.416;23.232;2023-02-04T03:21:17;99525.00;;;7.20;66.84
33697;BME280;20031;43.416;23.232;2023-02-04T03:23:42;99517.31;;;7.28;65.68
33697;BME280;20031;43.416;23.232;2023-02-04T03:26:08;99522.31;;;7.30;64.87
33697;BME280;20031;43.416;23.232;2023-02-04T03:28:38;99513.44;;;7.32;64.67
33697;BME280;20031;43.416;23.232;2023-02-04T03:31:04;99513.59;;;7.31;64.33
33697;BME280;20031;43.416;23.232;2023-02-04T03:33:29;99496.72;;;7.27;64.06
33697;BME280;20031;43.416;23.232;2023-02-04T03:35:57;99513.59;;;7.31;63.63
33697;BME280;20031;43.416;23.232;2023-02-04T03:38:22;99511.66;;;7.33;63.26
33697;BME280;20031;43.416;23.232;2023-02-04T03:40:48;99513.22;;;7.26;63.37
33697;BME280;20031;43.416;23.232;2023-02-04T03:43:13;99511.16;;;7.12;63.53
33697;BME280;20031;43.416;23.232;2023-02-04T03:45:39;99515.13;;;6.99;63.58
33697;BME280;20031;43.416;23.232;2023-02-04T03:48:04;99520.66;;;6.86;63.84
33697;BME280;20031;43.416;23.232;2023-02-04T03:50:30;99522.50;;;6.76;64.59
33697;BME280;20031;43.416;23.232;2023-02-04T03:52:55;99518.72;;;6.71;64.61
33697;BME280;20031;43.416;23.232;2023-02-04T03:55:21;99528.28;;;6.70;64.92
33697;BME280;20031;43.416;23.232;2023-02-04T03:57:46;99522.75;;;6.83;64.17
33697;BME280;20031;43.416;23.232;2023-02-04T04:00:12;99533.75;;;7.02;63.02
33697;BME280;20031;43.416;23.232;2023-02-04T04:02:39;99535.72;;;7.25;61.55
33697;BME280;20031;43.416;23.232;2023-02-04T04:05:06;99524.69;;;7.41;60.25
33697;BME280;20031;43.416;23.232;2023-02-04T04:07:32;99543.56;;;7.59;59.09
33697;BME280;20031;43.416;23.232;2023-02-04T04:09:57;99542.66;;;7.67;58.17
33697;BME280;20031;43.416;23.232;2023-02-04T04:12:22;99552.34;;;7.65;58.42
33697;BME280;20031;43.416;23.232;2023-02-04T04:14:48;99552.34;;;7.65;58.21
33697;BME280;20031;43.416;23.232;2023-02-04T04:17:13;99554.66;;;7.68;57.52
33697;BME280;20031;43.416;23.232;2023-02-04T04:19:39;99576.34;;;7.67;57.93
33697;BME280;20031;43.416;23.232;2023-02-04T04:22:04;99562.06;;;7.63;57.82
33697;BME280;20031;43.416;23.232;2023-02-04T04:24:30;99566.53;;;7.54;57.93
33697;BME280;20031;43.416;23.232;2023-02-04T04:26:55;99569.22;;;7.44;58.23
33697;BME280;20031;43.416;23.232;2023-02-04T04:29:20;99566.25;;;7.39;58.25
33697;BME280;20031;43.416;23.232;2023-02-04T04:31:46;99560.50;;;7.28;58.53
33697;BME280;20031;43.416;23.232;2023-02-04T04:34:11;99571.75;;;7.19;58.85
33697;BME280;20031;43.416;23.232;2023-02-04T04:36:37;99568.13;;;7.12;58.98
33697;BME280;20031;43.416;23.232;2023-02-04T04:39:02;99578.19;;;7.15;58.33
33697;BME280;20031;43.416;23.232;2023-02-04T04:41:28;99563.63;;;7.14;58.01
33697;BME280;20031;43.416;23.232;2023-02-04T04:43:53;99554.88;;;7.15;58.14
33697;BME280;20031;43.416;23.232;2023-02-04T04:46:19;99560.06;;;7.15;58.16
33697;BME280;20031;43.416;23.232;2023-02-04T04:48:44;99558.53;;;7.05;58.31
33697;BME280;20031;43.416;23.232;2023-02-04T04:51:10;99567.03;;;6.97;58.50
33697;BME280;20031;43.416;23.232;2023-02-04T04:53:35;99577.84;;;6.93;58.51
33697;BME280;20031;43.416;23.232;2023-02-04T04:56:01;99576.34;;;6.90;58.62
33697;BME280;20031;43.416;23.232;2023-02-04T04:58:26;99575.25;;;6.93;58.31
33697;BME280;20031;43.416;23.232;2023-02-04T05:00:52;99576.06;;;6.93;58.16
33697;BME280;20031;43.416;23.232;2023-02-04T05:03:17;99587.50;;;6.91;58.23
33697;BME280;20031;43.416;23.232;2023-02-04T05:05:43;99601.53;;;6.88;58.47
33697;BME280;20031;43.416;23.232;2023-02-04T05:08:08;99586.75;;;6.81;58.72
33697;BME280;20031;43.416;23.232;2023-02-04T05:10:38;99584.59;;;6.76;58.91
33697;BME280;20031;43.416;23.232;2023-02-04T05:13:04;99585.72;;;6.74;58.92
33697;BME280;20031;43.416;23.232;2023-02-04T05:15:30;99581.06;;;6.77;58.91
33697;BME280;20031;43.416;23.232;2023-02-04T05:17:55;99598.34;;;6.77;58.61
33697;BME280;20031;43.416;23.232;2023-02-04T05:20:22;99585.56;;;6.75;59.07
33697;BME280;20031;43.416;23.232;2023-02-04T05:22:48;99586.00;;;6.71;58.90
33697;BME280;20031;43.416;23.232;2023-02-04T05:25:14;99573.22;;;6.69;59.01
33697;BME280;20031;43.416;23.232;2023-02-04T05:27:41;99565.91;;;6.65;59.20
33697;BME280;20031;43.416;23.232;2023-02-04T05:30:09;99569.88;;;6.59;59.40
33697;BME280;20031;43.416;23.232;2023-02-04T05:32:34;99583.38;;;6.54;59.54
33697;BME280;20031;43.416;23.232;2023-02-04T05:35:01;99583.00;;;6.49;59.72
33697;BME280;20031;43.416;23.232;2023-02-04T05:37:26;99576.66;;;6.43;60.20
33697;BME280;20031;43.416;23.232;2023-02-04T05:39:52;99580.34;;;6.41;60.47
33697;BME280;20031;43.416;23.232;2023-02-04T05:42:17;99583.72;;;6.41;60.52
33697;BME280;20031;43.416;23.232;2023-02-04T05:44:43;99592.47;;;6.40;60.66
33697;BME280;20031;43.416;23.232;2023-02-04T05:47:08;99589.19;;;6.38;61.01
33697;BME280;20031;43.416;23.232;2023-02-04T05:49:34;99597.88;;;6.37;61.43
33697;BME280;20031;43.416;23.232;2023-02-04T05:51:59;99595.44;;;6.36;61.66
33697;BME280;20031;43.416;23.232;2023-02-04T05:54:25;99587.97;;;6.33;61.48
33697;BME280;20031;43.416;23.232;2023-02-04T05:56:50;99594.41;;;6.29;61.76
33697;BME280;20031;43.416;23.232;2023-02-04T05:59:16;99596.47;;;6.25;61.94
33697;BME280;20031;43.416;23.232;2023-02-04T06:01:42;99597.19;;;6.18;62.14
33697;BME280;20031;43.416;23.232;2023-02-04T06:04:08;99595.81;;;6.14;62.41
33697;BME280;20031;43.416;23.232;2023-02-04T06:06:34;99598.84;;;6.09;62.38
33697;BME280;20031;43.416;23.232;2023-02-04T06:08:59;99586.06;;;6.08;62.30
33697;BME280;20031;43.416;23.232;2023-02-04T06:11:25;99574.78;;;6.09;62.33
33697;BME280;20031;43.416;23.232;2023-02-04T06:13:51;99579.94;;;6.09;62.09
33697;BME280;20031;43.416;23.232;2023-02-04T06:16:16;99579.25;;;6.07;62.09
33697;BME280;20031;43.416;23.232;2023-02-04T06:18:42;99572.31;;;6.07;62.36
33697;BME280;20031;43.416;23.232;2023-02-04T06:21:07;99554.63;;;6.12;62.06
33697;BME280;20031;43.416;23.232;2023-02-04T06:23:33;99564.91;;;6.22;61.64
33697;BME280;20031;43.416;23.232;2023-02-04T06:26:00;99551.00;;;6.23;61.59
33697;BME280;20031;43.416;23.232;2023-02-04T06:28:25;99555.63;;;6.29;61.02
33697;BME280;20031;43.416;23.232;2023-02-04T06:30:51;99545.19;;;6.48;60.40
33697;BME280;20031;43.416;23.232;2023-02-04T06:33:16;99535.94;;;6.62;59.84
33697;BME280;20031;43.416;23.232;2023-02-04T06:35:41;99546.75;;;6.75;58.73
33697;BME280;20031;43.416;23.232;2023-02-04T06:38:07;99552.16;;;6.82;58.52
33697;BME280;20031;43.416;23.232;2023-02-04T06:40:32;99552.16;;;6.82;58.23
33697;BME280;20031;43.416;23.232;2023-02-04T06:42:58;99548.91;;;6.80;58.02
33697;BME280;20031;43.416;23.232;2023-02-04T06:45:23;99549.72;;;6.80;57.85
33697;BME280;20031;43.416;23.232;2023-02-04T06:47:49;99553.94;;;6.81;57.26
33697;BME280;20031;43.416;23.232;2023-02-04T06:50:14;99560.88;;;6.81;57.64
33697;BME280;20031;43.416;23.232;2023-02-04T06:52:45;99573.16;;;6.79;57.32
33697;BME280;20031;43.416;23.232;2023-02-04T06:55:12;99570.06;;;6.93;57.62
33697;BME280;20031;43.416;23.232;2023-02-04T06:57:38;99577.16;;;7.08;57.23
33697;BME280;20031;43.416;23.232;2023-02-04T07:00:04;99576.41;;;7.33;56.50
33697;BME280;20031;43.416;23.232;2023-02-04T07:02:30;99582.44;;;7.59;56.51
33697;BME280;20031;43.416;23.232;2023-02-04T07:04:56;99585.84;;;7.84;55.91
33697;BME280;20031;43.416;23.232;2023-02-04T07:07:21;99574.97;;;8.06;54.68
33697;BME280;20031;43.416;23.232;2023-02-04T07:09:47;99578.31;;;8.24;54.66
33697;BME280;20031;43.416;23.232;2023-02-04T07:12:12;99578.38;;;8.40;54.65
33697;BME280;20031;43.416;23.232;2023-02-04T07:14:38;99571.94;;;8.52;54.30
33697;BME280;20031;43.416;23.232;2023-02-04T07:17:03;99559.34;;;8.64;53.87
33697;BME280;20031;43.416;23.232;2023-02-04T07:19:28;99565.34;;;8.73;53.23
33697;BME280;20031;43.416;23.232;2023-02-04T07:21:54;99566.84;;;8.83;53.35
33697;BME280;20031;43.416;23.232;2023-02-04T07:24:21;99559.91;;;9.00;53.64
33697;BME280;20031;43.416;23.232;2023-02-04T07:26:47;99564.75;;;9.11;53.00
33697;BME280;20031;43.416;23.232;2023-02-04T07:29:13;99555.84;;;9.21;52.51
33697;BME280;20031;43.416;23.232;2023-02-04T07:31:38;99553.41;;;9.35;52.00
33697;BME280;20031;43.416;23.232;2023-02-04T07:34:03;99553.91;;;9.55;52.25
33697;BME280;20031;43.416;23.232;2023-02-04T07:36:29;99554.38;;;9.66;51.91
33697;BME280;20031;43.416;23.232;2023-02-04T07:38:54;99549.31;;;9.80;51.56
33697;BME280;20031;43.416;23.232;2023-02-04T07:41:20;99545.06;;;9.87;51.12
33697;BME280;20031;43.416;23.232;2023-02-04T07:43:46;99564.53;;;9.91;50.21
33697;BME280;20031;43.416;23.232;2023-02-04T07:46:11;99557.25;;;9.95;50.58
33697;BME280;20031;43.416;23.232;2023-02-04T07:48:37;99559.63;;;10.12;50.36
33697;BME280;20031;43.416;23.232;2023-02-04T07:51:03;99549.38;;;10.18;50.34
33697;BME280;20031;43.416;23.232;2023-02-04T07:53:28;99557.03;;;10.20;49.48
33697;BME280;20031;43.416;23.232;2023-02-04T07:55:54;99562.28;;;9.96;50.19
33697;BME280;20031;43.416;23.232;2023-02-04T07:58:19;99557.53;;;10.08;49.53
33697;BME280;20031;43.416;23.232;2023-02-04T08:00:44;99565.53;;;9.90;49.66
33697;BME280;20031;43.416;23.232;2023-02-04T08:03:10;99558.09;;;9.64;50.45
33697;BME280;20031;43.416;23.232;2023-02-04T08:05:35;99573.19;;;9.60;51.10
33697;BME280;20031;43.416;23.232;2023-02-04T08:08:01;99568.50;;;9.40;51.58
33697;BME280;20031;43.416;23.232;2023-02-04T08:10:27;99577.28;;;9.31;51.67
33697;BME280;20031;43.416;23.232;2023-02-04T08:12:52;99555.19;;;9.27;51.94
33697;BME280;20031;43.416;23.232;2023-02-04T08:15:18;99575.16;;;9.18;52.47
33697;BME280;20031;43.416;23.232;2023-02-04T08:17:43;99570.78;;;9.11;52.49
33697;BME280;20031;43.416;23.232;2023-02-04T08:20:10;99585.38;;;9.04;52.61
33697;BME280;20031;43.416;23.232;2023-02-04T08:22:35;99568.84;;;9.05;52.93
33697;BME280;20031;43.416;23.232;2023-02-04T08:25:02;99581.66;;;9.07;53.11
33697;BME280;20031;43.416;23.232;2023-02-04T08:27:29;99570.91;;;9.02;53.13
33697;BME280;20031;43.416;23.232;2023-02-04T08:29:56;99593.50;;;9.01;53.28
33697;BME280;20031;43.416;23.232;2023-02-04T08:32:21;99573.03;;;8.98;53.27
33697;BME280;20031;43.416;23.232;2023-02-04T08:34:47;99566.06;;;8.99;53.68
33697;BME280;20031;43.416;23.232;2023-02-04T08:37:13;99569.44;;;8.99;54.00
33697;BME280;20031;43.416;23.232;2023-02-04T08:39:39;99583.28;;;9.00;53.62
33697;BME280;20031;43.416;23.232;2023-02-04T08:42:08;99588.94;;;9.03;53.86
33697;BME280;20031;43.416;23.232;2023-02-04T08:44:34;99578.38;;;9.05;53.96
33697;BME280;20031;43.416;23.232;2023-02-04T08:46:59;99587.81;;;9.06;53.75
33697;BME280;20031;43.416;23.232;2023-02-04T08:49:25;99589.91;;;9.02;53.89
33697;BME280;20031;43.416;23.232;2023-02-04T08:51:51;99593.66;;;9.00;53.59
33697;BME280;20031;43.416;23.232;2023-02-04T08:54:16;99592.03;;;8.99;53.76
33697;BME280;20031;43.416;23.232;2023-02-04T08:56:42;99596.72;;;9.03;54.43
33697;BME280;20031;43.416;23.232;2023-02-04T08:59:07;99591.06;;;9.08;53.74
33697;BME280;20031;43.416;23.232;2023-02-04T09:01:34;99598.03;;;9.07;53.77
33697;BME280;20031;43.416;23.232;2023-02-04T09:03:59;99605.19;;;9.05;53.80
33697;BME280;20031;43.416;23.232;2023-02-04T09:06:24;99605.03;;;9.07;54.01
33697;BME280;20031;43.416;23.232;2023-02-04T09:08:50;99592.69;;;9.09;53.74
33697;BME280;20031;43.416;23.232;2023-02-04T09:11:15;99595.75;;;9.12;54.21
33697;BME280;20031;43.416;23.232;2023-02-04T09:13:41;99599.19;;;9.13;54.43
33697;BME280;20031;43.416;23.232;2023-02-04T09:16:06;99592.50;;;9.02;54.31
33697;BME280;20031;43.416;23.232;2023-02-04T09:18:32;99601.59;;;8.98;54.62
33697;BME280;20031;43.416;23.232;2023-02-04T09:20:57;99578.84;;;8.92;54.70
33697;BME280;20031;43.416;23.232;2023-02-04T09:23:23;99597.66;;;8.86;54.56
33697;BME280;20031;43.416;23.232;2023-02-04T09:25:49;99592.47;;;8.86;54.45
33697;BME280;20031;43.416;23.232;2023-02-04T09:28:15;99593.78;;;8.90;54.66
33697;BME280;20031;43.416;23.232;2023-02-04T09:30:43;99595.09;;;8.94;55.03
33697;BME280;20031;43.416;23.232;2023-02-04T09:33:10;99599.63;;;8.92;54.76
33697;BME280;20031;43.416;23.232;2023-02-04T09:35:36;99590.88;;;8.93;54.89
33697;BME280;20031;43.416;23.232;2023-02-04T09:38:02;99604.22;;;8.98;55.00
33697;BME280;20031;43.416;23.232;2023-02-04T09:40:32;99601.59;;;8.98;54.80
33697;BME280;20031;43.416;23.232;2023-02-04T09:42:59;99599.97;;;8.97;55.17
33697;BME280;20031;43.416;23.232;2023-02-04T09:45:29;99582.94;;;9.03;55.24
33697;BME280;20031;43.416;23.232;2023-02-04T09:47:58;99599.31;;;9.03;54.74
33697;BME280;20031;43.416;23.232;2023-02-04T09:50:27;99594.47;;;9.00;54.42
33697;BME280;20031;43.416;23.232;2023-02-04T09:52:54;99593.50;;;9.01;54.59
33697;BME280;20031;43.416;23.232;2023-02-04T09:55:26;99596.09;;;9.01;54.60
33697;BME280;20031;43.416;23.232;2023-02-04T09:57:53;99581.31;;;9.02;53.92
33697;BME280;20031;43.416;23.232;2023-02-04T10:00:21;99590.22;;;8.99;53.88
33697;BME280;20031;43.416;23.232;2023-02-04T10:02:47;99589.25;;;9.00;53.96
33697;BME280;20031;43.416;23.232;2023-02-04T10:05:18;99593.66;;;9.08;54.22
33697;BME280;20031;43.416;23.232;2023-02-04T10:07:44;99593.16;;;9.12;53.80
33697;BME280;20031;43.416;23.232;2023-02-04T10:10:19;99595.94;;;9.11;53.93
33697;BME280;20031;43.416;23.232;2023-02-04T10:12:45;99589.59;;;9.13;54.13
33697;BME280;20031;43.416;23.232;2023-02-04T10:15:16;99589.44;;;9.14;53.75
33697;BME280;20031;43.416;23.232;2023-02-04T10:17:47;99592.19;;;9.13;53.44
33697;BME280;20031;43.416;23.232;2023-02-04T10:20:18;99600.00;;;9.05;53.62
33697;BME280;20031;43.416;23.232;2023-02-04T10:22:45;99590.41;;;9.06;53.63
33697;BME280;20031;43.416;23.232;2023-02-04T10:25:15;99591.69;;;9.02;53.58
33697;BME280;20031;43.416;23.232;2023-02-04T10:27:51;99588.94;;;9.03;53.85
33697;BME280;20031;43.416;23.232;2023-02-04T10:30:28;99582.28;;;9.09;54.00
33697;BME280;20031;43.416;23.232;2023-02-04T10:32:58;99588.78;;;9.05;54.11
33697;BME280;20031;43.416;23.232;2023-02-04T10:35:24;99589.59;;;9.05;54.52
33697;BME280;20031;43.416;23.232;2023-02-04T10:38:04;99593.16;;;9.12;54.52
33697;BME280;20031;43.416;23.232;2023-02-04T10:40:35;99595.78;;;9.04;54.84
33697;BME280;20031;43.416;23.232;2023-02-04T10:43:08;99583.28;;;9.00;55.17
33697;BME280;20031;43.416;23.232;2023-02-04T10:45:35;99587.94;;;8.96;55.80
33697;BME280;20031;43.416;23.232;2023-02-04T10:48:01;99595.41;;;8.91;55.76
33697;BME280;20031;43.416;23.232;2023-02-04T10:50:27;99581.31;;;8.94;56.58
33697;BME280;20031;43.416;23.232;2023-02-04T10:52:57;99576.75;;;8.96;56.61
33697;BME280;20031;43.416;23.232;2023-02-04T10:55:44;99581.78;;;8.81;57.24
33697;BME280;20031;43.416;23.232;2023-02-04T10:58:13;99583.72;;;8.87;57.71
33697;BME280;20031;43.416;23.232;2023-02-04T11:00:40;99575.28;;;8.85;57.71
33697;BME280;20031;43.416;23.232;2023-02-04T11:03:10;99570.41;;;8.82;57.87
33697;BME280;20031;43.416;23.232;2023-02-04T11:05:36;99572.03;;;8.83;58.56
33697;BME280;20031;43.416;23.232;2023-02-04T11:08:25;99568.59;;;8.75;58.62
33697;BME280;20031;43.416;23.232;2023-02-04T11:11:03;99571.16;;;8.59;59.49
33697;BME280;20031;43.416;23.232;2023-02-04T11:39:38;99545.84;;;8.61;58.91
33697;BME280;20031;43.416;23.232;2023-02-04T11:42:05;99556.09;;;8.63;58.90
33697;BME280;20031;43.416;23.232;2023-02-04T11:44:31;99546.16;;;8.58;58.95
33697;BME280;20031;43.416;23.232;2023-02-04T11:46:59;99551.34;;;8.58;59.38
33697;BME280;20031;43.416;23.232;2023-02-04T11:49:26;99551.19;;;8.52;59.50
33697;BME280;20031;43.416;23.232;2023-02-04T11:52:04;99543.72;;;8.57;59.93
33697;BME280;20031;43.416;23.232;2023-02-04T11:54:34;99542.13;;;8.56;59.98
33697;BME280;20031;43.416;23.232;2023-02-04T11:57:00;99538.38;;;8.58;60.61
33697;BME280;20031;43.416;23.232;2023-02-04T11:59:26;99537.75;;;8.72;60.26
33697;BME280;20031;43.416;23.232;2023-02-04T12:02:14;99543.16;;;8.78;61.67
33697;BME280;20031;43.416;23.232;2023-02-04T12:04:50;99541.50;;;8.77;60.59
33697;BME280;20031;43.416;23.232;2023-02-04T12:07:20;99539.72;;;8.78;60.64
33697;BME280;20031;43.416;23.232;2023-02-04T12:09:47;99544.13;;;8.85;61.11
33697;BME280;20031;43.416;23.232;2023-02-04T12:12:26;99542.66;;;8.91;60.92
33697;BME280;20031;43.416;23.232;2023-02-04T12:15:01;99547.66;;;8.76;61.50
33697;BME280;20031;43.416;23.232;2023-02-04T12:17:28;99543.13;;;8.70;62.04
33697;BME280;20031;43.416;23.232;2023-02-04T12:19:53;99543.78;;;8.72;62.58
33697;BME280;20031;43.416;23.232;2023-02-04T12:22:19;99558.69;;;8.70;63.00
33697;BME280;20031;43.416;23.232;2023-02-04T12:24:44;99558.81;;;8.53;62.75
33697;BME280;20031;43.416;23.232;2023-02-04T12:27:10;99554.75;;;8.43;62.60
33697;BME280;20031;43.416;23.232;2023-02-04T12:29:35;99564.44;;;8.41;63.14
33697;BME280;20031;43.416;23.232;2023-02-04T12:32:00;99563.44;;;8.34;63.68
33697;BME280;20031;43.416;23.232;2023-02-04T12:34:26;99566.34;;;8.23;64.57
33697;BME280;20031;43.416;23.232;2023-02-04T12:36:52;99555.75;;;8.16;64.63
33697;BME280;20031;43.416;23.232;2023-02-04T12:39:17;99569.78;;;8.06;65.29
33697;BME280;20031;43.416;23.232;2023-02-04T12:41:43;99567.66;;;8.02;65.51
33697;BME280;20031;43.416;23.232;2023-02-04T12:44:09;99565.50;;;7.97;66.28
33697;BME280;20031;43.416;23.232;2023-02-04T12:46:34;99577.31;;;7.92;66.95
33697;BME280;20031;43.416;23.232;2023-02-04T12:48:59;99569.38;;;7.93;67.37
33697;BME280;20031;43.416;23.232;2023-02-04T12:51:25;99573.25;;;7.89;67.37
33697;BME280;20031;43.416;23.232;2023-02-04T12:53:51;99581.50;;;7.85;68.05
33697;BME280;20031;43.416;23.232;2023-02-04T12:56:17;99584.03;;;7.77;67.94
33697;BME280;20031;43.416;23.232;2023-02-04T12:58:45;99563.69;;;7.64;68.50
33697;BME280;20031;43.416;23.232;2023-02-04T13:01:10;99572.22;;;7.57;69.07
33697;BME280;20031;43.416;23.232;2023-02-04T13:03:36;99583.69;;;7.55;69.10
33697;BME280;20031;43.416;23.232;2023-02-04T13:06:01;99580.94;;;7.56;70.30
33697;BME280;20031;43.416;23.232;2023-02-04T13:08:27;99575.28;;;7.53;70.62
33697;BME280;20031;43.416;23.232;2023-02-04T13:10:52;99575.56;;;7.50;70.92
33697;BME280;20031;43.416;23.232;2023-02-04T13:13:18;99585.31;;;7.56;70.99
33697;BME280;20031;43.416;23.232;2023-02-04T13:15:44;99584.38;;;7.57;71.42
33697;BME280;20031;43.416;23.232;2023-02-04T13:18:10;99583.19;;;7.51;71.10
33697;BME280;20031;43.416;23.232;2023-02-04T13:20:35;99584.69;;;7.54;71.50
33697;BME280;20031;43.416;23.232;2023-02-04T13:23:01;99579.84;;;7.59;71.25
33697;BME280;20031;43.416;23.232;2023-02-04T13:25:26;99576.94;;;7.61;71.41